Terminal Aerodrome Forecast
Issued by NWS

Home | Current Version | Previous Version | Text Only | Print | Product List | Glossary Off
Versions: 1 2 3 4 5 6 7 8 9 10 11 12 13 14 15 16 17 18 19 20 21 22 23 24 25 26 27

007
FTUS43 KLOT 010155 AAA
TAFDPA
TAF AMD
KDPA 010155Z 0102/0124 05010KT 3SM -SHRA BR OVC005
      TEMPO 0104/0106 2SM TSRA BR OVC007CB
     FM010700 18010KT P6SM SCT008 OVC015
     FM011500 21019G32KT P6SM VCSH OVC020
      TEMPO 0119/0123 5SM -SHRA OVC015=

USA.gov is the U.S. government's official web portal to all federal, state and local government web resources and services.